Time;durP1;ratioP1;P1;durP2;ratioP2;P2;SDS_P1;SDS_P2;PMS_P1;PMS_P2;Temp;Humidity;BMP_temperature;BMP_pressure;BME280_temperature;BME280_humidity;BME280_pressure;Samples;Min_cycle;Max_cycle;Signal;HPM_P1;HPM_P2
2022/09/14 00:02:18;;;;;;;;;;;15.60;99.90;;;;;;5112894;27;20400;-71
2022/09/14 00:04:44;;;;;;;;;;;15.60;99.90;;;;;;5109242;28;20391;-71
2022/09/14 00:07:09;;;;;;;;;;;15.60;99.90;;;;;;5121540;27;19981;-71
2022/09/14 00:09:35;;;;;;;;;;;15.60;99.90;;;;;;5130131;27;19931;-71
2022/09/14 00:12:00;;;;;;;;;;;15.50;99.90;;;;;;5130846;27;19924;-71
2022/09/14 00:14:26;;;;;;;;;;;15.50;99.90;;;;;;5128898;27;19954;-71
2022/09/14 00:16:52;;;;;;;;;;;15.50;99.90;;;;;;5130486;27;19924;-71
2022/09/14 00:19:19;;;;;;;;;;;15.50;99.90;;;;;;5130183;27;20436;-71
2022/09/14 00:21:48;;;;;;;;;;;15.40;99.90;;;;;;5130935;27;20010;-71
2022/09/14 00:24:13;;;;;;;;;;;15.40;99.90;;;;;;5130310;27;19931;-71
2022/09/14 00:26:39;;;;;;;;;;;15.30;99.90;;;;;;5111499;28;19923;-71
2022/09/14 00:29:05;;;;;;;;;;;15.40;99.90;;;;;;5129413;27;19923;-71
2022/09/14 00:31:31;;;;;;;;;;;15.30;99.90;;;;;;5123522;28;19928;-71
2022/09/14 00:33:57;;;;;;;;;;;15.30;99.90;;;;;;5114068;28;20015;-71
2022/09/14 00:36:24;;;;;;;;;;;15.20;99.90;;;;;;5112829;28;20022;-72
2022/09/14 00:38:51;;;;;;;;;;;15.20;99.90;;;;;;5114608;28;19924;-71
2022/09/14 00:41:20;;;;;;;;;;;15.20;99.90;;;;;;5127443;27;19951;-71
2022/09/14 00:44:05;;;;;;;;;;;15.20;99.90;;;;;;5116689;27;20018;-71
2022/09/14 00:46:42;;;;;;;;;;;15.10;99.90;;;;;;5130538;28;19927;-71
2022/09/14 00:49:28;;;;;;;;;;;15.20;99.90;;;;;;5110218;28;19927;-71
2022/09/14 00:51:53;;;;;;;;;;;15.20;99.90;;;;;;5112795;28;19923;-71
2022/09/14 00:54:19;;;;;;;;;;;15.20;99.90;;;;;;5109895;28;19931;-71
2022/09/14 00:56:46;;;;;;;;;;;15.20;99.90;;;;;;5123148;28;20010;-72
2022/09/14 00:59:14;;;;;;;;;;;15.20;99.90;;;;;;5130110;27;19923;-71
2022/09/14 01:01:40;;;;;;;;;;;15.20;99.90;;;;;;5130243;27;20018;-71
2022/09/14 01:04:06;;;;;;;;;;;15.30;99.90;;;;;;5128020;28;20015;-72
2022/09/14 01:06:35;;;;;;;;;;;15.30;99.90;;;;;;5129825;28;19967;-72
2022/09/14 01:09:19;;;;;;;;;;;15.30;99.90;;;;;;5130439;27;19924;-71
2022/09/14 01:12:00;;;;;;;;;;;15.30;99.90;;;;;;5130171;28;19969;-72
2022/09/14 01:14:44;;;;;;;;;;;15.30;99.90;;;;;;5125303;28;19923;-72
2022/09/14 01:17:22;;;;;;;;;;;15.20;99.90;;;;;;5129837;28;19923;-71
2022/09/14 01:20:06;;;;;;;;;;;15.30;99.90;;;;;;5130261;28;19924;-72
2022/09/14 01:22:52;;;;;;;;;;;15.30;99.90;;;;;;5130162;27;19927;-71
2022/09/14 01:25:36;;;;;;;;;;;15.30;99.90;;;;;;5129038;28;19930;-71
2022/09/14 01:28:10;;;;;;;;;;;15.30;99.90;;;;;;5115666;27;20289;-71
2022/09/14 01:30:37;;;;;;;;;;;15.30;99.90;;;;;;5118985;28;20346;-71
2022/09/14 01:33:09;;;;;;;;;;;15.40;99.90;;;;;;5100936;28;20286;-71
2022/09/14 01:35:41;;;;;;;;;;;15.40;99.90;;;;;;5118601;28;19928;-71
2022/09/14 01:38:09;;;;;;;;;;;15.40;99.90;;;;;;5108654;28;20008;-71
2022/09/14 01:40:43;;;;;;;;;;;15.30;99.90;;;;;;5122827;27;19927;-71
2022/09/14 01:43:09;;;;;;;;;;;15.30;99.90;;;;;;5119765;27;19923;-71
2022/09/14 01:45:40;;;;;;;;;;;15.30;99.90;;;;;;5111760;28;19931;-71
2022/09/14 01:48:07;;;;;;;;;;;15.30;99.90;;;;;;5125973;27;19927;-72
2022/09/14 01:50:38;;;;;;;;;;;15.20;99.90;;;;;;5133259;27;19945;-71
2022/09/14 01:53:06;;;;;;;;;;;15.20;99.90;;;;;;5114820;27;19928;-71
2022/09/14 01:55:34;;;;;;;;;;;15.20;99.90;;;;;;5132909;27;19924;-71
2022/09/14 01:58:09;;;;;;;;;;;15.30;99.90;;;;;;5133486;27;20374;-72
2022/09/14 02:00:36;;;;;;;;;;;15.30;99.90;;;;;;5133810;27;19927;-71
2022/09/14 02:03:05;;;;;;;;;;;15.30;99.90;;;;;;5132647;27;19924;-71
2022/09/14 02:05:36;;;;;;;;;;;15.30;99.90;;;;;;5133426;27;20385;-72
2022/09/14 02:08:02;;;;;;;;;;;15.40;99.90;;;;;;5131211;27;19930;-71
2022/09/14 02:10:28;;;;;;;;;;;15.30;99.90;;;;;;5132778;27;20014;-72
2022/09/14 02:12:54;;;;;;;;;;;15.40;99.90;;;;;;5132279;27;19923;-72
2022/09/14 02:15:20;;;;;;;;;;;15.40;99.90;;;;;;5139782;27;19924;-71
2022/09/14 02:17:46;;;;;;;;;;;15.40;99.90;;;;;;5149892;27;19930;-71
2022/09/14 02:20:18;;;;;;;;;;;15.40;99.90;;;;;;5150991;27;20338;-71
2022/09/14 02:22:44;;;;;;;;;;;15.40;99.90;;;;;;5143795;27;19949;-72
2022/09/14 02:25:09;;;;;;;;;;;15.50;99.90;;;;;;5120521;27;19923;-71
2022/09/14 02:27:35;;;;;;;;;;;15.50;99.90;;;;;;5134569;27;19986;-71
2022/09/14 02:30:01;;;;;;;;;;;15.40;99.90;;;;;;5117526;27;19974;-71
2022/09/14 02:32:35;;;;;;;;;;;15.50;99.90;;;;;;5133293;27;20014;-72
2022/09/14 02:35:14;;;;;;;;;;;15.40;99.90;;;;;;5133653;27;19931;-71
2022/09/14 02:37:54;;;;;;;;;;;15.40;99.90;;;;;;5134649;27;19968;-71
2022/09/14 02:40:29;;;;;;;;;;;15.40;99.90;;;;;;5134651;27;20014;-71
2022/09/14 02:42:57;;;;;;;;;;;15.40;99.90;;;;;;5133510;27;19927;-71
2022/09/14 02:45:41;;;;;;;;;;;15.40;99.90;;;;;;5102451;27;20006;-71
2022/09/14 02:48:13;;;;;;;;;;;15.30;99.90;;;;;;5134077;27;20330;-71
2022/09/14 02:50:49;;;;;;;;;;;15.30;99.90;;;;;;5134447;27;19923;-71
2022/09/14 02:53:18;;;;;;;;;;;15.30;99.90;;;;;;5134032;27;19923;-72
2022/09/14 02:55:46;;;;;;;;;;;15.30;99.90;;;;;;5142863;27;19935;-72
2022/09/14 02:58:13;;;;;;;;;;;15.30;99.90;;;;;;5131674;27;19924;-72
2022/09/14 03:00:40;;;;;;;;;;;15.30;99.90;;;;;;5143795;27;19981;-72
2022/09/14 03:03:06;;;;;;;;;;;15.30;99.90;;;;;;5146485;27;19928;-72
2022/09/14 03:05:32;;;;;;;;;;;15.30;99.90;;;;;;5148929;27;19938;-72
2022/09/14 03:07:58;;;;;;;;;;;15.30;99.90;;;;;;5148946;27;19924;-72
2022/09/14 03:10:23;;;;;;;;;;;15.30;99.90;;;;;;5141976;27;19945;-71
2022/09/14 03:12:49;;;;;;;;;;;15.30;99.90;;;;;;5141014;27;19927;-72
2022/09/14 03:15:14;;;;;;;;;;;15.30;99.90;;;;;;5145493;27;19924;-72
2022/09/14 03:17:43;;;;;;;;;;;15.40;99.90;;;;;;5145867;27;19931;-71
2022/09/14 03:20:10;;;;;;;;;;;15.40;99.90;;;;;;5143135;27;19924;-72
2022/09/14 03:22:35;;;;;;;;;;;15.40;99.90;;;;;;5141452;27;19938;-72
2022/09/14 03:25:01;;;;;;;;;;;15.40;99.90;;;;;;5123505;28;20298;-72
2022/09/14 03:27:26;;;;;;;;;;;15.40;99.90;;;;;;5133278;27;19955;-71
2022/09/14 03:29:52;;;;;;;;;;;15.40;99.90;;;;;;5140738;27;19949;-71
2022/09/14 03:32:17;;;;;;;;;;;15.40;99.90;;;;;;5139270;27;19924;-72
2022/09/14 03:34:43;;;;;;;;;;;15.40;99.90;;;;;;5135928;27;20400;-71
2022/09/14 03:37:08;;;;;;;;;;;15.40;99.90;;;;;;5124634;27;19924;-72
2022/09/14 03:39:34;;;;;;;;;;;15.40;99.90;;;;;;5131648;27;19924;-71
2022/09/14 03:41:59;;;;;;;;;;;15.40;99.90;;;;;;5134421;27;19931;-72
2022/09/14 03:44:25;;;;;;;;;;;15.40;99.90;;;;;;5135736;27;19930;-72
2022/09/14 03:46:50;;;;;;;;;;;15.40;99.90;;;;;;5131653;27;19931;-71
2022/09/14 03:49:16;;;;;;;;;;;15.40;99.90;;;;;;5131744;27;19923;-71
2022/09/14 03:51:41;;;;;;;;;;;15.50;99.90;;;;;;5130944;27;19927;-72
2022/09/14 03:54:07;;;;;;;;;;;15.50;99.90;;;;;;5129912;27;19980;-72
2022/09/14 03:56:33;;;;;;;;;;;15.40;99.90;;;;;;5129560;27;20730;-72
2022/09/14 03:58:58;;;;;;;;;;;15.40;99.90;;;;;;5130976;27;19950;-71
2022/09/14 04:01:24;;;;;;;;;;;15.40;99.90;;;;;;5130255;27;19924;-71
2022/09/14 04:03:49;;;;;;;;;;;15.40;99.90;;;;;;5113015;27;19923;-72
2022/09/14 04:06:15;;;;;;;;;;;15.40;99.90;;;;;;5128724;27;19927;-71
2022/09/14 04:08:41;;;;;;;;;;;15.40;99.90;;;;;;5130857;27;19976;-71
2022/09/14 04:11:12;;;;;;;;;;;15.40;99.90;;;;;;5130535;27;19978;-71
2022/09/14 04:13:38;;;;;;;;;;;15.30;99.90;;;;;;5129967;27;19948;-71
2022/09/14 04:16:03;;;;;;;;;;;15.40;99.90;;;;;;5130430;27;19923;-72
2022/09/14 04:18:29;;;;;;;;;;;15.40;99.90;;;;;;5128951;27;19923;-71
2022/09/14 04:20:59;;;;;;;;;;;15.40;99.90;;;;;;5129736;27;19923;-71
2022/09/14 04:23:25;;;;;;;;;;;15.40;99.90;;;;;;5129392;27;20002;-72
2022/09/14 04:25:51;;;;;;;;;;;15.30;99.90;;;;;;5130565;27;20729;-71
2022/09/14 04:28:17;;;;;;;;;;;15.40;99.90;;;;;;5130572;27;20277;-71
2022/09/14 04:30:43;;;;;;;;;;;15.30;99.90;;;;;;5130409;27;19924;-71
2022/09/14 04:33:08;;;;;;;;;;;15.30;99.90;;;;;;5129943;27;19973;-71
2022/09/14 04:35:36;;;;;;;;;;;15.30;99.90;;;;;;5130308;28;19928;-72
2022/09/14 04:38:02;;;;;;;;;;;15.30;99.90;;;;;;5113653;28;19969;-71
2022/09/14 04:40:28;;;;;;;;;;;15.30;99.90;;;;;;5130598;28;20286;-72
2022/09/14 04:42:53;;;;;;;;;;;15.30;99.90;;;;;;5128657;28;19923;-71
2022/09/14 04:45:19;;;;;;;;;;;15.30;99.90;;;;;;5122739;28;19969;-71
2022/09/14 04:47:44;;;;;;;;;;;15.30;99.90;;;;;;5124314;28;19930;-71
2022/09/14 04:50:10;;;;;;;;;;;15.30;99.90;;;;;;5104961;28;20379;-71
2022/09/14 04:52:36;;;;;;;;;;;15.30;99.90;;;;;;5123930;28;19923;-72
2022/09/14 04:55:01;;;;;;;;;;;15.30;99.90;;;;;;5130157;28;20381;-71
2022/09/14 04:57:27;;;;;;;;;;;15.30;99.90;;;;;;5123194;28;20302;-71
2022/09/14 04:59:52;;;;;;;;;;;15.30;99.90;;;;;;5123688;27;19931;-71
2022/09/14 05:02:18;;;;;;;;;;;15.30;99.90;;;;;;5130535;27;20318;-71
2022/09/14 05:04:43;;;;;;;;;;;15.30;99.90;;;;;;5098122;28;19924;-72
2022/09/14 05:07:09;;;;;;;;;;;15.40;99.90;;;;;;5130175;28;19927;-71
2022/09/14 05:09:34;;;;;;;;;;;15.30;99.90;;;;;;5112218;28;20006;-71
2022/09/14 05:12:00;;;;;;;;;;;15.30;99.90;;;;;;5129573;28;20335;-71
2022/09/14 05:14:25;;;;;;;;;;;15.30;99.90;;;;;;5130110;27;19931;-71
2022/09/14 05:16:51;;;;;;;;;;;15.30;99.90;;;;;;5133594;27;20297;-71
2022/09/14 05:19:17;;;;;;;;;;;15.30;99.90;;;;;;5133709;27;20377;-71
2022/09/14 05:21:42;;;;;;;;;;;15.30;99.90;;;;;;5133556;27;19934;-72
2022/09/14 05:24:16;;;;;;;;;;;15.30;99.90;;;;;;5110551;27;20015;-72
2022/09/14 05:26:42;;;;;;;;;;;15.20;99.90;;;;;;5120803;27;19955;-71
2022/09/14 05:29:10;;;;;;;;;;;15.20;99.90;;;;;;5133524;27;20320;-71
2022/09/14 05:31:36;;;;;;;;;;;15.20;99.90;;;;;;5133941;27;20011;-71
2022/09/14 05:34:02;;;;;;;;;;;15.10;99.90;;;;;;5125174;27;20017;-72
2022/09/14 05:36:27;;;;;;;;;;;15.10;99.90;;;;;;5120697;27;20014;-72
2022/09/14 05:38:53;;;;;;;;;;;15.10;99.90;;;;;;5133452;27;20533;-73
2022/09/14 05:41:18;;;;;;;;;;;15.10;99.90;;;;;;5128839;27;19931;-71
2022/09/14 05:43:44;;;;;;;;;;;15.10;99.90;;;;;;5115046;27;19951;-72
2022/09/14 05:46:11;;;;;;;;;;;15.10;99.90;;;;;;5120158;27;19923;-71
2022/09/14 05:48:37;;;;;;;;;;;15.10;99.90;;;;;;5122350;27;19939;-72
2022/09/14 05:51:04;;;;;;;;;;;15.10;99.90;;;;;;5118779;27;19924;-71
2022/09/14 05:53:30;;;;;;;;;;;15.10;99.90;;;;;;5119931;27;19931;-71
2022/09/14 05:55:59;;;;;;;;;;;15.10;99.90;;;;;;5126892;27;19924;-70
2022/09/14 05:58:25;;;;;;;;;;;15.10;99.90;;;;;;5114914;27;19924;-71
2022/09/14 06:00:50;;;;;;;;;;;15.20;99.90;;;;;;5133623;27;19923;-72
2022/09/14 06:03:16;;;;;;;;;;;15.20;99.90;;;;;;5132486;27;20010;-72
2022/09/14 06:05:41;;;;;;;;;;;15.20;99.90;;;;;;5125655;27;19930;-72
2022/09/14 06:08:07;;;;;;;;;;;15.30;99.90;;;;;;5113169;27;20389;-71
2022/09/14 06:10:32;;;;;;;;;;;15.40;99.90;;;;;;5112980;27;20335;-71
2022/09/14 06:12:58;;;;;;;;;;;15.40;99.90;;;;;;5095859;27;19927;-72
2022/09/14 06:15:24;;;;;;;;;;;15.40;99.90;;;;;;5113432;27;19939;-71
2022/09/14 06:17:49;;;;;;;;;;;15.50;99.90;;;;;;5126959;27;20462;-71
2022/09/14 06:20:17;;;;;;;;;;;15.50;99.90;;;;;;5125335;27;19923;-71
2022/09/14 06:22:43;;;;;;;;;;;15.50;99.90;;;;;;5126700;27;20433;-71
2022/09/14 06:25:10;;;;;;;;;;;15.50;99.90;;;;;;5113028;27;20057;-71
2022/09/14 06:27:36;;;;;;;;;;;15.50;99.90;;;;;;5114485;27;19923;-71
2022/09/14 06:30:02;;;;;;;;;;;15.60;99.90;;;;;;5132629;27;19993;-71
2022/09/14 06:32:29;;;;;;;;;;;15.60;99.90;;;;;;5117732;27;20431;-71
2022/09/14 06:34:54;;;;;;;;;;;15.80;99.90;;;;;;5112507;28;19924;-71
2022/09/14 06:37:20;;;;;;;;;;;15.80;99.90;;;;;;5111852;27;20442;-71
2022/09/14 06:39:45;;;;;;;;;;;16.00;99.90;;;;;;5120285;27;19927;-72
2022/09/14 06:42:11;;;;;;;;;;;16.00;99.90;;;;;;5132078;27;20038;-71
2022/09/14 06:44:36;;;;;;;;;;;16.10;99.90;;;;;;5124616;27;19928;-70
2022/09/14 06:47:02;;;;;;;;;;;16.20;99.90;;;;;;5126518;27;19923;-71
2022/09/14 06:49:28;;;;;;;;;;;16.20;99.90;;;;;;5124885;27;19928;-71
2022/09/14 06:51:56;;;;;;;;;;;16.30;99.90;;;;;;5094160;27;19924;-72
2022/09/14 06:54:22;;;;;;;;;;;16.30;99.90;;;;;;5124453;27;19924;-70
2022/09/14 06:56:47;;;;;;;;;;;16.30;99.90;;;;;;5111726;28;19923;-71
2022/09/14 06:59:14;;;;;;;;;;;16.30;99.90;;;;;;5119827;27;19923;-71
2022/09/14 07:01:39;;;;;;;;;;;16.40;99.90;;;;;;5112594;27;20335;-72
2022/09/14 07:04:05;;;;;;;;;;;16.50;99.90;;;;;;5132306;27;19948;-71
2022/09/14 07:06:32;;;;;;;;;;;16.60;99.90;;;;;;5113227;27;19946;-71
2022/09/14 07:08:58;;;;;;;;;;;16.60;99.90;;;;;;5132332;27;19924;-71
2022/09/14 07:11:24;;;;;;;;;;;16.70;99.90;;;;;;5124321;27;19924;-72
2022/09/14 07:13:51;;;;;;;;;;;16.70;99.90;;;;;;5123849;27;19976;-72
2022/09/14 07:16:17;;;;;;;;;;;16.70;99.90;;;;;;5126533;27;19924;-71
2022/09/14 07:18:42;;;;;;;;;;;16.70;99.90;;;;;;5132162;27;20897;-71
2022/09/14 07:21:12;;;;;;;;;;;16.70;99.90;;;;;;5131815;27;20014;-72
2022/09/14 07:23:39;;;;;;;;;;;16.80;99.90;;;;;;5131488;27;19965;-72
2022/09/14 07:26:16;;;;;;;;;;;16.80;99.90;;;;;;5131767;27;19931;-71
2022/09/14 07:28:43;;;;;;;;;;;16.80;99.90;;;;;;5112897;27;19946;-71
2022/09/14 07:31:17;;;;;;;;;;;16.90;99.90;;;;;;5128666;27;19928;-71
2022/09/14 07:33:43;;;;;;;;;;;16.90;99.90;;;;;;5131174;27;19942;-71
2022/09/14 07:36:09;;;;;;;;;;;16.90;99.90;;;;;;5131402;27;19930;-71
2022/09/14 07:38:35;;;;;;;;;;;16.90;99.90;;;;;;5131127;27;19924;-71
2022/09/14 07:41:01;;;;;;;;;;;16.90;99.90;;;;;;5117541;27;20394;-71
2022/09/14 07:43:27;;;;;;;;;;;17.00;99.90;;;;;;5112478;27;19930;-70
2022/09/14 07:45:52;;;;;;;;;;;17.00;99.90;;;;;;5130391;27;19965;-72
2022/09/14 07:48:18;;;;;;;;;;;17.00;99.90;;;;;;5131468;27;19976;-72
2022/09/14 07:50:43;;;;;;;;;;;17.00;99.90;;;;;;5131148;27;20018;-71
2022/09/14 07:53:09;;;;;;;;;;;17.10;99.90;;;;;;5131259;27;19931;-71
2022/09/14 07:55:37;;;;;;;;;;;17.20;99.90;;;;;;5130854;27;19927;-71
2022/09/14 07:58:02;;;;;;;;;;;17.20;99.90;;;;;;5130995;27;19966;-71
2022/09/14 08:00:28;;;;;;;;;;;17.30;99.90;;;;;;5130390;27;20008;-72
2022/09/14 08:02:54;;;;;;;;;;;17.40;99.90;;;;;;5119823;27;20377;-71
2022/09/14 08:05:20;;;;;;;;;;;17.40;99.90;;;;;;5128322;27;19930;-71
2022/09/14 08:07:45;;;;;;;;;;;17.50;99.90;;;;;;5130869;27;19967;-71
2022/09/14 08:10:11;;;;;;;;;;;17.60;99.90;;;;;;5129871;27;19974;-71
2022/09/14 08:12:36;;;;;;;;;;;17.70;99.90;;;;;;5129530;27;20435;-70
2022/09/14 08:15:02;;;;;;;;;;;17.70;99.90;;;;;;5130324;27;19923;-72
2022/09/14 08:17:28;;;;;;;;;;;17.90;99.90;;;;;;5130920;27;19930;-71
2022/09/14 08:19:54;;;;;;;;;;;18.00;99.90;;;;;;5130406;27;19923;-71
2022/09/14 08:22:20;;;;;;;;;;;18.10;99.90;;;;;;5119952;27;19923;-71
2022/09/14 08:24:45;;;;;;;;;;;18.20;99.90;;;;;;5101552;27;20308;-71
2022/09/14 08:27:11;;;;;;;;;;;18.40;99.90;;;;;;5130362;27;19927;-71
2022/09/14 08:29:37;;;;;;;;;;;18.40;99.90;;;;;;5130196;27;19923;-71
2022/09/14 08:32:02;;;;;;;;;;;18.40;99.90;;;;;;5119587;27;20339;-71
2022/09/14 08:34:28;;;;;;;;;;;18.50;99.90;;;;;;5092659;28;20339;-71
2022/09/14 08:36:53;;;;;;;;;;;18.50;99.90;;;;;;5121007;28;19924;-71
2022/09/14 08:39:19;;;;;;;;;;;18.60;99.90;;;;;;5121982;28;19924;-71
2022/09/14 08:41:45;;;;;;;;;;;18.60;99.90;;;;;;5120424;28;19923;-71
2022/09/14 08:44:10;;;;;;;;;;;18.70;99.90;;;;;;5116501;28;19928;-71
2022/09/14 08:46:52;;;;;;;;;;;18.70;99.90;;;;;;5119660;28;19976;-71
2022/09/14 08:49:17;;;;;;;;;;;18.80;99.90;;;;;;5129724;27;20456;-71
2022/09/14 08:51:43;;;;;;;;;;;19.00;99.60;;;;;;5133755;27;19923;-71
2022/09/14 08:54:09;;;;;;;;;;;19.00;99.50;;;;;;5134361;27;19923;-71
2022/09/14 08:56:37;;;;;;;;;;;19.20;98.90;;;;;;5121883;27;19972;-71
2022/09/14 08:59:03;;;;;;;;;;;19.40;98.10;;;;;;5121240;27;19930;-71
2022/09/14 09:01:35;;;;;;;;;;;19.60;97.70;;;;;;5134434;27;19927;-71
2022/09/14 09:04:00;;;;;;;;;;;19.80;97.00;;;;;;5116967;27;19924;-72
2022/09/14 09:06:36;;;;;;;;;;;19.90;96.70;;;;;;5095728;28;20294;-72
2022/09/14 09:09:21;;;;;;;;;;;20.10;96.70;;;;;;5121512;27;19923;-72
2022/09/14 09:11:49;;;;;;;;;;;20.30;96.50;;;;;;5134394;27;20039;-71
2022/09/14 09:14:17;;;;;;;;;;;20.60;95.80;;;;;;5134306;27;20305;-70
2022/09/14 09:16:44;;;;;;;;;;;21.10;95.70;;;;;;5120204;27;19930;-70
2022/09/14 09:19:12;;;;;;;;;;;21.60;94.90;;;;;;5134151;27;20010;-70
2022/09/14 09:21:39;;;;;;;;;;;21.70;93.80;;;;;;5120275;27;20580;-70
2022/09/14 09:24:15;;;;;;;;;;;21.40;93.40;;;;;;5134048;27;19931;-70
2022/09/14 09:26:41;;;;;;;;;;;21.10;93.50;;;;;;5127727;27;20007;-70
2022/09/14 09:29:08;;;;;;;;;;;20.70;94.10;;;;;;5095409;27;20006;-70
2022/09/14 09:31:34;;;;;;;;;;;20.50;94.00;;;;;;5113601;27;19928;-70
2022/09/14 09:34:00;;;;;;;;;;;20.20;93.90;;;;;;5113697;27;19930;-70
2022/09/14 09:36:28;;;;;;;;;;;20.00;94.10;;;;;;5120685;27;20017;-71
2022/09/14 09:38:54;;;;;;;;;;;19.80;94.20;;;;;;5132981;27;19992;-70
2022/09/14 09:41:25;;;;;;;;;;;19.80;94.40;;;;;;5120710;27;20377;-70
2022/09/14 09:43:59;;;;;;;;;;;19.70;94.10;;;;;;5097639;27;19978;-70
2022/09/14 09:46:26;;;;;;;;;;;19.60;94.20;;;;;;5111998;28;19924;-70
2022/09/14 09:48:51;;;;;;;;;;;19.60;94.20;;;;;;5111178;28;19924;-70
2022/09/14 09:51:23;;;;;;;;;;;19.60;93.80;;;;;;5111670;28;19930;-70
2022/09/14 09:54:04;;;;;;;;;;;19.70;94.00;;;;;;5110994;28;20642;-70
2022/09/14 09:56:35;;;;;;;;;;;19.70;94.10;;;;;;5111704;28;19924;-70
2022/09/14 09:59:01;;;;;;;;;;;19.90;94.00;;;;;;5097777;28;19930;-70
2022/09/14 10:01:26;;;;;;;;;;;20.00;93.70;;;;;;5109954;28;19924;-71
2022/09/14 10:04:04;;;;;;;;;;;20.10;94.00;;;;;;5093487;28;20388;-72
2022/09/14 10:06:30;;;;;;;;;;;20.20;93.40;;;;;;5105608;28;19924;-71
2022/09/14 10:08:56;;;;;;;;;;;20.40;93.00;;;;;;5111180;28;19953;-71
2022/09/14 10:11:33;;;;;;;;;;;20.60;92.90;;;;;;5109899;28;19928;-71
2022/09/14 10:13:58;;;;;;;;;;;20.70;92.70;;;;;;5090689;28;19924;-71
2022/09/14 10:16:33;;;;;;;;;;;20.80;92.60;;;;;;5106995;28;19924;-70
2022/09/14 10:19:00;;;;;;;;;;;21.20;91.90;;;;;;5110702;28;20011;-71
2022/09/14 10:21:26;;;;;;;;;;;21.40;92.10;;;;;;5110125;28;19924;-71
2022/09/14 10:24:02;;;;;;;;;;;21.50;92.20;;;;;;5110603;28;19949;-70
2022/09/14 10:26:31;;;;;;;;;;;21.50;91.80;;;;;;5109746;28;19924;-71
2022/09/14 10:29:17;;;;;;;;;;;21.40;91.70;;;;;;5111185;28;20448;-71
2022/09/14 10:31:43;;;;;;;;;;;21.30;92.00;;;;;;5110674;28;19928;-70
2022/09/14 10:34:13;;;;;;;;;;;21.20;91.40;;;;;;5109239;28;19928;-71
2022/09/14 10:36:46;;;;;;;;;;;21.10;91.70;;;;;;5102092;28;19935;-72
2022/09/14 10:39:13;;;;;;;;;;;21.00;91.80;;;;;;5107252;28;19931;-71
2022/09/14 10:41:52;;;;;;;;;;;20.90;92.00;;;;;;5110214;28;19938;-71
2022/09/14 10:44:37;;;;;;;;;;;20.80;91.80;;;;;;5058000;27;1764675;-71
2022/09/14 10:47:02;;;;;;;;;;;20.90;91.90;;;;;;5122870;27;19923;-72
2022/09/14 10:49:28;;;;;;;;;;;21.00;91.70;;;;;;5130982;27;20412;-72
2022/09/14 10:51:56;;;;;;;;;;;21.00;91.50;;;;;;5125816;27;19923;-71
2022/09/14 10:54:32;;;;;;;;;;;21.10;91.60;;;;;;5129415;27;19924;-72
2022/09/14 10:57:04;;;;;;;;;;;21.20;91.40;;;;;;5128274;27;19993;-71
2022/09/14 10:59:34;;;;;;;;;;;21.20;91.40;;;;;;5130690;27;19927;-71
2022/09/14 11:02:02;;;;;;;;;;;21.20;91.40;;;;;;5128473;27;19924;-72
2022/09/14 11:04:40;;;;;;;;;;;21.20;90.90;;;;;;5131564;27;19924;-71
2022/09/14 11:07:11;;;;;;;;;;;21.20;90.70;;;;;;5129130;27;19927;-71
2022/09/14 11:10:00;;;;;;;;;;;21.20;91.10;;;;;;5131765;27;19928;-71
2022/09/14 11:12:30;;;;;;;;;;;21.10;91.10;;;;;;5120915;27;19923;-71
2022/09/14 11:15:14;;;;;;;;;;;21.30;91.00;;;;;;5133132;27;20025;-71
2022/09/14 11:17:43;;;;;;;;;;;21.60;90.80;;;;;;5131326;27;20014;-71
2022/09/14 11:20:27;;;;;;;;;;;22.00;89.90;;;;;;5128458;27;20024;-71
2022/09/14 11:22:59;;;;;;;;;;;22.10;89.90;;;;;;5117453;27;19923;-71
2022/09/14 11:25:42;;;;;;;;;;;22.30;89.90;;;;;;5131820;27;19929;-72
2022/09/14 11:28:15;;;;;;;;;;;22.70;87.90;;;;;;5130785;27;20025;-72
2022/09/14 11:30:44;;;;;;;;;;;23.40;88.10;;;;;;5117443;27;19931;-71
2022/09/14 11:33:19;;;;;;;;;;;23.60;86.30;;;;;;5117946;27;19924;-71
2022/09/14 11:35:47;;;;;;;;;;;23.80;85.70;;;;;;5105173;28;19923;-71
2022/09/14 11:38:18;;;;;;;;;;;24.00;84.60;;;;;;5103661;27;19931;-71
2022/09/14 11:40:59;;;;;;;;;;;23.80;83.70;;;;;;5104804;27;20305;-71
2022/09/14 11:43:27;;;;;;;;;;;23.40;83.90;;;;;;5112190;27;19927;-71
2022/09/14 11:46:01;;;;;;;;;;;23.20;84.40;;;;;;5113275;27;19938;-71
2022/09/14 11:48:31;;;;;;;;;;;23.10;85.00;;;;;;5098857;28;19964;-72
2022/09/14 11:51:18;;;;;;;;;;;23.50;84.90;;;;;;5124349;28;19951;-71
2022/09/14 11:53:45;;;;;;;;;;;23.90;84.00;;;;;;5139009;27;20349;-71
2022/09/14 11:56:17;;;;;;;;;;;24.50;83.10;;;;;;5127089;28;19923;-71
2022/09/14 11:58:45;;;;;;;;;;;25.00;82.50;;;;;;5143957;27;19924;-71
2022/09/14 12:01:25;;;;;;;;;;;25.50;80.70;;;;;;5147247;27;19930;-71
2022/09/14 12:04:00;;;;;;;;;;;25.90;78.50;;;;;;5146088;27;19927;-71
2022/09/14 12:06:28;;;;;;;;;;;26.40;79.00;;;;;;5132086;27;19923;-71
2022/09/14 12:08:54;;;;;;;;;;;26.60;76.70;;;;;;5133552;27;20430;-71
2022/09/14 12:11:23;;;;;;;;;;;26.50;76.30;;;;;;5134399;27;19983;-71
2022/09/14 12:14:09;;;;;;;;;;;26.20;75.30;;;;;;5141047;27;20026;-71
2022/09/14 12:16:54;;;;;;;;;;;25.60;74.90;;;;;;5142922;27;19950;-72
2022/09/14 12:19:20;;;;;;;;;;;25.10;76.50;;;;;;5134525;27;19930;-72
2022/09/14 12:21:45;;;;;;;;;;;25.10;76.40;;;;;;5118107;27;19924;-71
2022/09/14 12:24:14;;;;;;;;;;;25.40;75.50;;;;;;5117169;27;19927;-71
2022/09/14 12:26:39;;;;;;;;;;;25.60;75.60;;;;;;5090330;28;19924;-71
2022/09/14 12:29:23;;;;;;;;;;;25.80;76.30;;;;;;5103880;28;20013;-72
2022/09/14 12:31:55;;;;;;;;;;;25.90;72.60;;;;;;5130887;27;19939;-71
2022/09/14 12:34:21;;;;;;;;;;;25.80;73.80;;;;;;5116437;27;20415;-71
2022/09/14 12:36:47;;;;;;;;;;;25.80;73.60;;;;;;5130357;27;19923;-72
2022/09/14 12:39:15;;;;;;;;;;;25.70;71.90;;;;;;5129676;28;19977;-71
2022/09/14 12:41:40;;;;;;;;;;;25.40;72.70;;;;;;5130036;28;19928;-72
2022/09/14 12:44:26;;;;;;;;;;;25.20;72.90;;;;;;5128967;28;19977;-71
2022/09/14 12:46:51;;;;;;;;;;;25.10;72.30;;;;;;5129474;28;20320;-71
2022/09/14 12:49:26;;;;;;;;;;;24.60;72.90;;;;;;5129540;28;19924;-71
2022/09/14 12:51:52;;;;;;;;;;;24.20;72.70;;;;;;5130331;27;20022;-71
2022/09/14 12:54:24;;;;;;;;;;;23.80;74.10;;;;;;5129968;27;20022;-71
2022/09/14 12:57:07;;;;;;;;;;;23.60;74.70;;;;;;5128164;27;19923;-71
2022/09/14 12:59:59;;;;;;;;;;;23.40;74.30;;;;;;5119796;27;19925;-71
2022/09/14 13:02:24;;;;;;;;;;;23.20;74.90;;;;;;5085904;28;20328;-71
2022/09/14 13:04:55;;;;;;;;;;;23.10;75.30;;;;;;5095910;28;19970;-71
2022/09/14 13:07:21;;;;;;;;;;;23.10;75.30;;;;;;5105533;28;19923;-72
2022/09/14 13:09:49;;;;;;;;;;;23.10;75.80;;;;;;5129173;27;20286;-71
2022/09/14 13:12:21;;;;;;;;;;;23.30;75.00;;;;;;5129709;27;20067;-71
2022/09/14 13:14:54;;;;;;;;;;;23.30;75.30;;;;;;5113921;27;19938;-71
2022/09/14 13:17:19;;;;;;;;;;;23.60;75.20;;;;;;5109759;28;20313;-71
2022/09/14 13:20:03;;;;;;;;;;;24.10;75.40;;;;;;5122772;28;19931;-71
2022/09/14 13:22:30;;;;;;;;;;;24.50;72.60;;;;;;5097855;28;19935;-71
2022/09/14 13:24:57;;;;;;;;;;;24.50;73.40;;;;;;5107812;28;20011;-71
2022/09/14 13:27:22;;;;;;;;;;;24.60;72.30;;;;;;5097000;28;20413;-71
2022/09/14 13:29:56;;;;;;;;;;;24.50;71.50;;;;;;5101293;28;19923;-71
2022/09/14 13:32:22;;;;;;;;;;;24.50;71.70;;;;;;5115616;27;19931;-71
2022/09/14 13:34:48;;;;;;;;;;;25.30;72.40;;;;;;5121779;28;19924;-70
2022/09/14 13:37:13;;;;;;;;;;;25.80;70.70;;;;;;5111746;28;19923;-71
2022/09/14 13:39:40;;;;;;;;;;;25.80;70.10;;;;;;5119207;27;19928;-73
2022/09/14 13:42:06;;;;;;;;;;;26.00;69.10;;;;;;5120046;27;20302;-71
2022/09/14 13:44:34;;;;;;;;;;;26.00;69.60;;;;;;5126373;27;19971;-71
2022/09/14 13:47:01;;;;;;;;;;;26.00;69.20;;;;;;5098529;27;19934;-71
2022/09/14 13:49:27;;;;;;;;;;;25.60;68.10;;;;;;5100750;27;20045;-71
2022/09/14 13:52:12;;;;;;;;;;;25.10;69.50;;;;;;5100425;27;19968;-72
2022/09/14 13:54:38;;;;;;;;;;;24.70;68.90;;;;;;5112467;27;20417;-71
2022/09/14 13:57:12;;;;;;;;;;;24.40;70.20;;;;;;5095571;27;19932;-71
2022/09/14 13:59:58;;;;;;;;;;;24.40;70.90;;;;;;5112117;28;19931;-72
2022/09/14 14:02:25;;;;;;;;;;;24.30;70.30;;;;;;5098514;28;20016;-70
2022/09/14 14:04:51;;;;;;;;;;;24.20;70.60;;;;;;5112874;27;20378;-72
2022/09/14 14:07:26;;;;;;;;;;;24.00;70.90;;;;;;5091794;27;19975;-72
2022/09/14 14:09:53;;;;;;;;;;;23.90;71.00;;;;;;5105917;27;19970;-72
2022/09/14 14:12:39;;;;;;;;;;;23.80;71.10;;;;;;5095942;27;19931;-70
2022/09/14 14:15:11;;;;;;;;;;;23.70;71.10;;;;;;5113314;27;19930;-72
2022/09/14 14:17:37;;;;;;;;;;;23.60;71.30;;;;;;5119363;27;19924;-71
2022/09/14 14:20:22;;;;;;;;;;;23.50;71.20;;;;;;5119149;27;19924;-71
2022/09/14 14:23:06;;;;;;;;;;;23.30;71.30;;;;;;5107736;27;20407;-72
2022/09/14 14:25:33;;;;;;;;;;;23.20;71.90;;;;;;5114757;27;19927;-71
2022/09/14 14:28:02;;;;;;;;;;;23.10;72.10;;;;;;5114762;27;19924;-71